Kampen, Netherlands
Current Conditions -  °F | °C
As of 10:55 AM on Friday 31 Oct 2014 (Local Time) from EHDL Reporting Station
Scattered Clouds Scattered Clouds  
Wind Chill: 14°   Ceiling: Unl
Heat Index: 14°   Visibility: 6mi
Dew Point: 12°   Wind: 8mph
Humidity: 88%   Direction: 180°S
Pressure: 30.18"   Gusts: NA
Location:  52.56°N, 5.91°E
Report Text: EHDL 310955Z AUTO 18007KT 9999 FEW092 SCT100 14/12 Q1022 BLU
Loading
Personal Weather Stations






























Interactive Weather Map
Tropical Storm Tracking
New forecast layout! Learn more

10-Day Weather Forecast

Advertisements
Track Severe Weather on mobile